sensor_id;sensor_type;location;lat;lon;timestamp;P1;durP1;ratioP1;P2;durP2;ratioP2
35839;SDS011;35514;50.504;30.500;2023-03-01T00:01:00;25.08;;;8.48;;
35839;SDS011;35514;50.504;30.500;2023-03-01T00:03:28;21.70;;;8.13;;
35839;SDS011;35514;50.504;30.500;2023-03-01T00:05:56;21.48;;;7.90;;
35839;SDS011;35514;50.504;30.500;2023-03-01T00:08:24;27.08;;;8.55;;
35839;SDS011;35514;50.504;30.500;2023-03-01T00:10:59;19.45;;;7.32;;
35839;SDS011;35514;50.504;30.500;2023-03-01T00:13:28;18.67;;;7.18;;
35839;SDS011;35514;50.504;30.500;2023-03-01T00:15:56;17.33;;;7.95;;
35839;SDS011;35514;50.504;30.500;2023-03-01T00:18:24;21.17;;;8.60;;
35839;SDS011;35514;50.504;30.500;2023-03-01T00:20:52;19.42;;;6.68;;
35839;SDS011;35514;50.504;30.500;2023-03-01T00:23:20;18.67;;;6.90;;
35839;SDS011;35514;50.504;30.500;2023-03-01T00:25:48;14.68;;;6.85;;
35839;SDS011;35514;50.504;30.500;2023-03-01T00:28:17;17.90;;;7.63;;
35839;SDS011;35514;50.504;30.500;2023-03-01T00:30:46;21.90;;;8.13;;
35839;SDS011;35514;50.504;30.500;2023-03-01T00:33:13;19.58;;;7.30;;
35839;SDS011;35514;50.504;30.500;2023-03-01T00:35:41;21.90;;;7.35;;
35839;SDS011;35514;50.504;30.500;2023-03-01T00:38:09;22.08;;;7.18;;
35839;SDS011;35514;50.504;30.500;2023-03-01T00:40:36;18.73;;;7.65;;
35839;SDS011;35514;50.504;30.500;2023-03-01T00:43:04;18.85;;;8.15;;
35839;SDS011;35514;50.504;30.500;2023-03-01T00:45:32;21.98;;;7.95;;
35839;SDS011;35514;50.504;30.500;2023-03-01T00:48:01;22.95;;;7.95;;
35839;SDS011;35514;50.504;30.500;2023-03-01T00:50:29;26.77;;;7.85;;
35839;SDS011;35514;50.504;30.500;2023-03-01T00:52:56;20.55;;;7.45;;
35839;SDS011;35514;50.504;30.500;2023-03-01T00:55:24;16.80;;;6.68;;
35839;SDS011;35514;50.504;30.500;2023-03-01T00:57:52;19.48;;;7.63;;
35839;SDS011;35514;50.504;30.500;2023-03-01T01:00:20;17.85;;;7.35;;
35839;SDS011;35514;50.504;30.500;2023-03-01T01:02:48;24.30;;;6.60;;
35839;SDS011;35514;50.504;30.500;2023-03-01T01:05:17;17.73;;;6.90;;
35839;SDS011;35514;50.504;30.500;2023-03-01T01:07:47;19.70;;;7.18;;
35839;SDS011;35514;50.504;30.500;2023-03-01T01:10:15;19.60;;;7.70;;
35839;SDS011;35514;50.504;30.500;2023-03-01T01:12:47;16.67;;;6.43;;
35839;SDS011;35514;50.504;30.500;2023-03-01T01:15:14;21.75;;;7.35;;
35839;SDS011;35514;50.504;30.500;2023-03-01T01:17:42;26.15;;;9.07;;
35839;SDS011;35514;50.504;30.500;2023-03-01T01:20:11;15.77;;;6.82;;
35839;SDS011;35514;50.504;30.500;2023-03-01T01:22:40;22.08;;;8.00;;
35839;SDS011;35514;50.504;30.500;2023-03-01T01:25:07;18.95;;;6.72;;
35839;SDS011;35514;50.504;30.500;2023-03-01T01:27:35;20.27;;;6.85;;
35839;SDS011;35514;50.504;30.500;2023-03-01T01:30:03;19.25;;;7.65;;
35839;SDS011;35514;50.504;30.500;2023-03-01T01:32:31;21.60;;;8.07;;
35839;SDS011;35514;50.504;30.500;2023-03-01T01:34:59;17.73;;;7.07;;
35839;SDS011;35514;50.504;30.500;2023-03-01T01:37:26;18.42;;;7.05;;
35839;SDS011;35514;50.504;30.500;2023-03-01T01:39:58;18.20;;;7.53;;
35839;SDS011;35514;50.504;30.500;2023-03-01T01:42:26;22.25;;;7.57;;
35839;SDS011;35514;50.504;30.500;2023-03-01T01:47:36;20.67;;;8.55;;
35839;SDS011;35514;50.504;30.500;2023-03-01T01:50:04;18.92;;;7.70;;
35839;SDS011;35514;50.504;30.500;2023-03-01T01:52:33;15.65;;;7.07;;
35839;SDS011;35514;50.504;30.500;2023-03-01T01:55:04;19.17;;;7.00;;
35839;SDS011;35514;50.504;30.500;2023-03-01T01:57:34;19.40;;;7.28;;
35839;SDS011;35514;50.504;30.500;2023-03-01T02:00:04;23.00;;;7.75;;
35839;SDS011;35514;50.504;30.500;2023-03-01T02:02:32;21.38;;;7.15;;
35839;SDS011;35514;50.504;30.500;2023-03-01T02:05:01;21.13;;;6.90;;
35839;SDS011;35514;50.504;30.500;2023-03-01T02:07:31;20.88;;;7.13;;
35839;SDS011;35514;50.504;30.500;2023-03-01T02:09:58;17.42;;;6.82;;
35839;SDS011;35514;50.504;30.500;2023-03-01T02:12:27;19.90;;;7.93;;
35839;SDS011;35514;50.504;30.500;2023-03-01T02:14:56;21.02;;;7.05;;
35839;SDS011;35514;50.504;30.500;2023-03-01T02:17:23;18.70;;;7.57;;
35839;SDS011;35514;50.504;30.500;2023-03-01T02:19:54;16.35;;;6.97;;
35839;SDS011;35514;50.504;30.500;2023-03-01T02:22:25;22.70;;;7.68;;
35839;SDS011;35514;50.504;30.500;2023-03-01T02:24:58;20.15;;;8.27;;
35839;SDS011;35514;50.504;30.500;2023-03-01T02:27:31;21.23;;;6.53;;
35839;SDS011;35514;50.504;30.500;2023-03-01T02:30:01;18.80;;;6.93;;
35839;SDS011;35514;50.504;30.500;2023-03-01T02:32:29;18.48;;;6.93;;
35839;SDS011;35514;50.504;30.500;2023-03-01T02:34:56;16.08;;;7.03;;
35839;SDS011;35514;50.504;30.500;2023-03-01T02:37:24;20.55;;;7.82;;
35839;SDS011;35514;50.504;30.500;2023-03-01T02:39:53;18.67;;;7.05;;
35839;SDS011;35514;50.504;30.500;2023-03-01T02:42:26;20.13;;;7.18;;
35839;SDS011;35514;50.504;30.500;2023-03-01T02:44:54;20.33;;;8.88;;
35839;SDS011;35514;50.504;30.500;2023-03-01T02:47:23;20.60;;;7.22;;
35839;SDS011;35514;50.504;30.500;2023-03-01T02:49:50;26.70;;;9.32;;
35839;SDS011;35514;50.504;30.500;2023-03-01T02:55:07;20.92;;;8.25;;
35839;SDS011;35514;50.504;30.500;2023-03-01T02:57:36;25.73;;;8.13;;
35839;SDS011;35514;50.504;30.500;2023-03-01T03:00:05;20.73;;;7.45;;
35839;SDS011;35514;50.504;30.500;2023-03-01T03:02:35;21.35;;;8.20;;
35839;SDS011;35514;50.504;30.500;2023-03-01T03:05:04;16.35;;;6.70;;
35839;SDS011;35514;50.504;30.500;2023-03-01T03:07:32;19.38;;;6.60;;
35839;SDS011;35514;50.504;30.500;2023-03-01T03:10:00;36.60;;;9.05;;
35839;SDS011;35514;50.504;30.500;2023-03-01T03:12:28;22.10;;;8.30;;
35839;SDS011;35514;50.504;30.500;2023-03-01T03:14:55;19.20;;;6.80;;
35839;SDS011;35514;50.504;30.500;2023-03-01T03:17:23;17.35;;;7.38;;
35839;SDS011;35514;50.504;30.500;2023-03-01T03:19:52;20.60;;;7.38;;
35839;SDS011;35514;50.504;30.500;2023-03-01T03:22:20;17.67;;;7.30;;
35839;SDS011;35514;50.504;30.500;2023-03-01T03:24:47;21.58;;;8.32;;
35839;SDS011;35514;50.504;30.500;2023-03-01T03:27:15;18.08;;;7.18;;
35839;SDS011;35514;50.504;30.500;2023-03-01T03:29:42;17.85;;;6.70;;
35839;SDS011;35514;50.504;30.500;2023-03-01T03:32:10;18.70;;;6.35;;
35839;SDS011;35514;50.504;30.500;2023-03-01T03:34:37;18.30;;;7.55;;
35839;SDS011;35514;50.504;30.500;2023-03-01T03:37:06;21.90;;;7.20;;
35839;SDS011;35514;50.504;30.500;2023-03-01T03:39:54;23.08;;;6.85;;
35839;SDS011;35514;50.504;30.500;2023-03-01T03:42:22;26.33;;;8.18;;
35839;SDS011;35514;50.504;30.500;2023-03-01T03:44:49;20.35;;;7.30;;
35839;SDS011;35514;50.504;30.500;2023-03-01T03:47:18;17.23;;;7.15;;
35839;SDS011;35514;50.504;30.500;2023-03-01T03:49:45;19.83;;;7.60;;
35839;SDS011;35514;50.504;30.500;2023-03-01T03:52:14;19.33;;;6.68;;
35839;SDS011;35514;50.504;30.500;2023-03-01T03:54:41;21.55;;;7.47;;
35839;SDS011;35514;50.504;30.500;2023-03-01T03:57:09;22.02;;;7.38;;
35839;SDS011;35514;50.504;30.500;2023-03-01T03:59:36;23.98;;;7.32;;
35839;SDS011;35514;50.504;30.500;2023-03-01T04:02:04;22.90;;;7.40;;
35839;SDS011;35514;50.504;30.500;2023-03-01T04:04:34;16.73;;;6.60;;
35839;SDS011;35514;50.504;30.500;2023-03-01T04:07:01;25.98;;;8.50;;
35839;SDS011;35514;50.504;30.500;2023-03-01T04:09:30;25.15;;;9.18;;
35839;SDS011;35514;50.504;30.500;2023-03-01T04:11:58;23.05;;;8.07;;
35839;SDS011;35514;50.504;30.500;2023-03-01T04:14:25;20.00;;;7.50;;
35839;SDS011;35514;50.504;30.500;2023-03-01T04:16:53;24.25;;;8.60;;
35839;SDS011;35514;50.504;30.500;2023-03-01T04:19:20;21.08;;;8.18;;
35839;SDS011;35514;50.504;30.500;2023-03-01T04:21:48;22.23;;;8.82;;
35839;SDS011;35514;50.504;30.500;2023-03-01T04:24:16;22.85;;;7.57;;
35839;SDS011;35514;50.504;30.500;2023-03-01T04:26:45;15.70;;;6.88;;
35839;SDS011;35514;50.504;30.500;2023-03-01T04:29:13;19.30;;;7.30;;
35839;SDS011;35514;50.504;30.500;2023-03-01T04:31:40;23.25;;;7.57;;
35839;SDS011;35514;50.504;30.500;2023-03-01T04:34:08;26.73;;;8.18;;
35839;SDS011;35514;50.504;30.500;2023-03-01T04:36:36;18.13;;;7.38;;
35839;SDS011;35514;50.504;30.500;2023-03-01T04:39:04;22.73;;;7.18;;
35839;SDS011;35514;50.504;30.500;2023-03-01T04:41:38;19.92;;;8.27;;
35839;SDS011;35514;50.504;30.500;2023-03-01T04:44:08;23.95;;;6.93;;
35839;SDS011;35514;50.504;30.500;2023-03-01T04:46:36;19.25;;;6.72;;
35839;SDS011;35514;50.504;30.500;2023-03-01T04:49:03;19.50;;;9.27;;
35839;SDS011;35514;50.504;30.500;2023-03-01T04:51:31;21.90;;;7.03;;
35839;SDS011;35514;50.504;30.500;2023-03-01T04:54:00;24.25;;;8.20;;
35839;SDS011;35514;50.504;30.500;2023-03-01T04:56:28;24.02;;;8.38;;
35839;SDS011;35514;50.504;30.500;2023-03-01T04:58:56;25.88;;;7.93;;
35839;SDS011;35514;50.504;30.500;2023-03-01T05:01:25;26.70;;;7.57;;
35839;SDS011;35514;50.504;30.500;2023-03-01T05:06:41;23.45;;;7.60;;
35839;SDS011;35514;50.504;30.500;2023-03-01T05:09:08;16.40;;;7.30;;
35839;SDS011;35514;50.504;30.500;2023-03-01T05:11:37;23.50;;;9.23;;
35839;SDS011;35514;50.504;30.500;2023-03-01T05:14:05;17.92;;;6.78;;
35839;SDS011;35514;50.504;30.500;2023-03-01T05:16:35;16.98;;;7.13;;
35839;SDS011;35514;50.504;30.500;2023-03-01T05:19:05;19.67;;;7.50;;
35839;SDS011;35514;50.504;30.500;2023-03-01T05:21:38;16.02;;;6.70;;
35839;SDS011;35514;50.504;30.500;2023-03-01T05:24:28;18.42;;;7.13;;
35839;SDS011;35514;50.504;30.500;2023-03-01T05:26:55;24.10;;;9.95;;
35839;SDS011;35514;50.504;30.500;2023-03-01T05:29:24;19.17;;;7.45;;
35839;SDS011;35514;50.504;30.500;2023-03-01T05:31:53;21.42;;;8.10;;
35839;SDS011;35514;50.504;30.500;2023-03-01T05:34:22;25.90;;;8.50;;
35839;SDS011;35514;50.504;30.500;2023-03-01T05:36:51;26.73;;;9.32;;
35839;SDS011;35514;50.504;30.500;2023-03-01T05:39:20;27.48;;;8.70;;
35839;SDS011;35514;50.504;30.500;2023-03-01T05:41:48;23.50;;;7.97;;
35839;SDS011;35514;50.504;30.500;2023-03-01T05:44:18;32.95;;;8.77;;
35839;SDS011;35514;50.504;30.500;2023-03-01T05:46:46;18.35;;;7.35;;
35839;SDS011;35514;50.504;30.500;2023-03-01T05:49:16;23.40;;;8.20;;
35839;SDS011;35514;50.504;30.500;2023-03-01T05:51:46;21.77;;;9.25;;
35839;SDS011;35514;50.504;30.500;2023-03-01T05:54:15;29.75;;;8.10;;
35839;SDS011;35514;50.504;30.500;2023-03-01T05:56:46;20.95;;;7.45;;
35839;SDS011;35514;50.504;30.500;2023-03-01T05:59:13;27.00;;;8.85;;
35839;SDS011;35514;50.504;30.500;2023-03-01T06:01:42;20.00;;;7.90;;
35839;SDS011;35514;50.504;30.500;2023-03-01T06:04:10;20.40;;;8.98;;
35839;SDS011;35514;50.504;30.500;2023-03-01T06:06:39;25.20;;;8.00;;
35839;SDS011;35514;50.504;30.500;2023-03-01T06:09:07;23.38;;;8.27;;
35839;SDS011;35514;50.504;30.500;2023-03-01T06:11:36;28.15;;;8.20;;
35839;SDS011;35514;50.504;30.500;2023-03-01T06:14:04;23.55;;;8.75;;
35839;SDS011;35514;50.504;30.500;2023-03-01T06:16:34;21.08;;;8.50;;
35839;SDS011;35514;50.504;30.500;2023-03-01T06:19:01;29.40;;;8.77;;
35839;SDS011;35514;50.504;30.500;2023-03-01T06:21:29;29.25;;;9.25;;
35839;SDS011;35514;50.504;30.500;2023-03-01T06:23:58;23.70;;;8.57;;
35839;SDS011;35514;50.504;30.500;2023-03-01T06:26:25;26.27;;;9.60;;
35839;SDS011;35514;50.504;30.500;2023-03-01T06:28:53;19.05;;;8.23;;
35839;SDS011;35514;50.504;30.500;2023-03-01T06:31:20;25.05;;;8.30;;
35839;SDS011;35514;50.504;30.500;2023-03-01T06:33:48;18.45;;;8.23;;
35839;SDS011;35514;50.504;30.500;2023-03-01T06:36:16;22.80;;;8.68;;
35839;SDS011;35514;50.504;30.500;2023-03-01T06:38:47;19.73;;;8.02;;
35839;SDS011;35514;50.504;30.500;2023-03-01T06:41:16;28.90;;;8.57;;
35839;SDS011;35514;50.504;30.500;2023-03-01T06:43:43;29.08;;;9.57;;
35839;SDS011;35514;50.504;30.500;2023-03-01T06:46:11;22.55;;;8.60;;
35839;SDS011;35514;50.504;30.500;2023-03-01T06:48:39;24.60;;;8.43;;
35839;SDS011;35514;50.504;30.500;2023-03-01T06:51:07;22.00;;;8.63;;
35839;SDS011;35514;50.504;30.500;2023-03-01T06:53:34;19.50;;;7.45;;
35839;SDS011;35514;50.504;30.500;2023-03-01T06:56:02;27.27;;;8.90;;
35839;SDS011;35514;50.504;30.500;2023-03-01T06:58:31;21.50;;;8.52;;
35839;SDS011;35514;50.504;30.500;2023-03-01T07:00:58;31.25;;;8.82;;
35839;SDS011;35514;50.504;30.500;2023-03-01T07:03:28;25.08;;;9.35;;
35839;SDS011;35514;50.504;30.500;2023-03-01T07:06:03;25.35;;;8.73;;
35839;SDS011;35514;50.504;30.500;2023-03-01T07:08:34;22.65;;;9.40;;
35839;SDS011;35514;50.504;30.500;2023-03-01T07:11:02;21.92;;;7.85;;
35839;SDS011;35514;50.504;30.500;2023-03-01T07:13:33;22.08;;;9.18;;
35839;SDS011;35514;50.504;30.500;2023-03-01T07:16:01;30.85;;;10.88;;
35839;SDS011;35514;50.504;30.500;2023-03-01T07:18:28;23.17;;;8.60;;
35839;SDS011;35514;50.504;30.500;2023-03-01T07:20:56;27.02;;;8.93;;
35839;SDS011;35514;50.504;30.500;2023-03-01T07:23:24;20.83;;;8.85;;
35839;SDS011;35514;50.504;30.500;2023-03-01T07:25:52;19.75;;;7.60;;
35839;SDS011;35514;50.504;30.500;2023-03-01T07:28:22;20.67;;;8.65;;
35839;SDS011;35514;50.504;30.500;2023-03-01T07:30:51;22.65;;;8.25;;
35839;SDS011;35514;50.504;30.500;2023-03-01T07:33:18;22.90;;;9.73;;
35839;SDS011;35514;50.504;30.500;2023-03-01T07:35:46;25.45;;;9.38;;
35839;SDS011;35514;50.504;30.500;2023-03-01T07:38:14;33.47;;;10.35;;
35839;SDS011;35514;50.504;30.500;2023-03-01T07:40:42;26.80;;;9.10;;
35839;SDS011;35514;50.504;30.500;2023-03-01T07:43:09;26.55;;;9.15;;
35839;SDS011;35514;50.504;30.500;2023-03-01T07:45:37;24.15;;;9.32;;
35839;SDS011;35514;50.504;30.500;2023-03-01T07:48:06;25.92;;;9.10;;
35839;SDS011;35514;50.504;30.500;2023-03-01T07:50:34;28.55;;;9.68;;
35839;SDS011;35514;50.504;30.500;2023-03-01T07:53:03;24.80;;;8.50;;
35839;SDS011;35514;50.504;30.500;2023-03-01T07:55:31;25.75;;;8.52;;
35839;SDS011;35514;50.504;30.500;2023-03-01T07:57:58;22.30;;;7.90;;
35839;SDS011;35514;50.504;30.500;2023-03-01T08:00:26;24.60;;;9.05;;
35839;SDS011;35514;50.504;30.500;2023-03-01T08:02:54;21.38;;;8.75;;
35839;SDS011;35514;50.504;30.500;2023-03-01T08:05:24;25.52;;;8.35;;
35839;SDS011;35514;50.504;30.500;2023-03-01T08:07:51;20.67;;;8.73;;
35839;SDS011;35514;50.504;30.500;2023-03-01T08:10:19;25.85;;;8.90;;
35839;SDS011;35514;50.504;30.500;2023-03-01T08:12:47;23.33;;;8.77;;
35839;SDS011;35514;50.504;30.500;2023-03-01T08:15:15;25.45;;;7.88;;
35839;SDS011;35514;50.504;30.500;2023-03-01T08:17:43;21.70;;;8.52;;
35839;SDS011;35514;50.504;30.500;2023-03-01T08:20:11;20.98;;;8.43;;
35839;SDS011;35514;50.504;30.500;2023-03-01T08:22:41;28.33;;;7.88;;
35839;SDS011;35514;50.504;30.500;2023-03-01T08:25:14;28.42;;;10.10;;
35839;SDS011;35514;50.504;30.500;2023-03-01T08:27:41;21.40;;;9.35;;
35839;SDS011;35514;50.504;30.500;2023-03-01T08:30:09;20.30;;;8.35;;
35839;SDS011;35514;50.504;30.500;2023-03-01T08:32:37;22.30;;;8.00;;
35839;SDS011;35514;50.504;30.500;2023-03-01T08:35:08;20.25;;;7.85;;
35839;SDS011;35514;50.504;30.500;2023-03-01T08:37:35;18.42;;;8.32;;
35839;SDS011;35514;50.504;30.500;2023-03-01T08:40:05;24.50;;;8.35;;
35839;SDS011;35514;50.504;30.500;2023-03-01T08:42:36;27.95;;;8.27;;
35839;SDS011;35514;50.504;30.500;2023-03-01T08:45:05;20.55;;;7.47;;
35839;SDS011;35514;50.504;30.500;2023-03-01T08:47:33;16.30;;;6.85;;
35839;SDS011;35514;50.504;30.500;2023-03-01T08:50:01;18.88;;;7.90;;
35839;SDS011;35514;50.504;30.500;2023-03-01T08:52:29;26.23;;;8.35;;
35839;SDS011;35514;50.504;30.500;2023-03-01T08:54:57;17.40;;;7.22;;
35839;SDS011;35514;50.504;30.500;2023-03-01T08:57:26;20.75;;;8.95;;
35839;SDS011;35514;50.504;30.500;2023-03-01T08:59:54;18.30;;;7.55;;
35839;SDS011;35514;50.504;30.500;2023-03-01T09:02:22;16.98;;;7.35;;
35839;SDS011;35514;50.504;30.500;2023-03-01T09:04:50;20.15;;;7.53;;
35839;SDS011;35514;50.504;30.500;2023-03-01T09:07:17;15.40;;;6.50;;
35839;SDS011;35514;50.504;30.500;2023-03-01T09:09:45;16.88;;;7.22;;
35839;SDS011;35514;50.504;30.500;2023-03-01T09:12:13;16.23;;;6.68;;
35839;SDS011;35514;50.504;30.500;2023-03-01T09:14:42;14.30;;;5.95;;
35839;SDS011;35514;50.504;30.500;2023-03-01T09:17:09;14.40;;;7.05;;
35839;SDS011;35514;50.504;30.500;2023-03-01T09:19:37;13.13;;;6.93;;
35839;SDS011;35514;50.504;30.500;2023-03-01T09:22:05;16.67;;;7.63;;
35839;SDS011;35514;50.504;30.500;2023-03-01T09:24:32;14.48;;;6.85;;
35839;SDS011;35514;50.504;30.500;2023-03-01T09:27:00;15.77;;;6.63;;
35839;SDS011;35514;50.504;30.500;2023-03-01T09:29:27;14.93;;;6.88;;
35839;SDS011;35514;50.504;30.500;2023-03-01T09:31:56;16.85;;;7.00;;
35839;SDS011;35514;50.504;30.500;2023-03-01T09:34:24;16.05;;;7.05;;
35839;SDS011;35514;50.504;30.500;2023-03-01T09:36:52;17.65;;;6.40;;
35839;SDS011;35514;50.504;30.500;2023-03-01T09:39:20;15.35;;;6.10;;
35839;SDS011;35514;50.504;30.500;2023-03-01T09:41:49;19.98;;;6.68;;
35839;SDS011;35514;50.504;30.500;2023-03-01T09:44:22;17.10;;;7.18;;
35839;SDS011;35514;50.504;30.500;2023-03-01T09:46:51;18.30;;;6.38;;
35839;SDS011;35514;50.504;30.500;2023-03-01T09:49:21;13.07;;;5.72;;
35839;SDS011;35514;50.504;30.500;2023-03-01T09:51:54;11.68;;;5.63;;
35839;SDS011;35514;50.504;30.500;2023-03-01T09:54:22;17.75;;;6.45;;
35839;SDS011;35514;50.504;30.500;2023-03-01T09:56:56;18.42;;;5.97;;
35839;SDS011;35514;50.504;30.500;2023-03-01T09:59:26;14.65;;;6.22;;
35839;SDS011;35514;50.504;30.500;2023-03-01T10:01:56;13.32;;;5.90;;
35839;SDS011;35514;50.504;30.500;2023-03-01T10:04:35;14.25;;;6.03;;
35839;SDS011;35514;50.504;30.500;2023-03-01T10:07:10;17.00;;;6.85;;
35839;SDS011;35514;50.504;30.500;2023-03-01T10:09:42;13.13;;;5.78;;
35839;SDS011;35514;50.504;30.500;2023-03-01T10:12:11;19.25;;;7.10;;
35839;SDS011;35514;50.504;30.500;2023-03-01T10:14:42;24.52;;;8.27;;
35839;SDS011;35514;50.504;30.500;2023-03-01T10:17:12;18.88;;;7.15;;
35839;SDS011;35514;50.504;30.500;2023-03-01T10:19:46;13.73;;;6.05;;
35839;SDS011;35514;50.504;30.500;2023-03-01T10:22:15;18.80;;;6.13;;
35839;SDS011;35514;50.504;30.500;2023-03-01T10:24:43;18.45;;;6.55;;
35839;SDS011;35514;50.504;30.500;2023-03-01T10:27:14;16.17;;;6.15;;
35839;SDS011;35514;50.504;30.500;2023-03-01T10:29:46;13.65;;;5.88;;
35839;SDS011;35514;50.504;30.500;2023-03-01T10:32:16;14.23;;;6.60;;
35839;SDS011;35514;50.504;30.500;2023-03-01T10:34:44;17.85;;;6.47;;
35839;SDS011;35514;50.504;30.500;2023-03-01T10:37:14;22.05;;;6.82;;
35839;SDS011;35514;50.504;30.500;2023-03-01T10:39:58;14.90;;;6.25;;
35839;SDS011;35514;50.504;30.500;2023-03-01T10:42:33;15.75;;;6.80;;
35839;SDS011;35514;50.504;30.500;2023-03-01T10:45:14;23.13;;;5.93;;
35839;SDS011;35514;50.504;30.500;2023-03-01T10:47:42;17.38;;;6.70;;
35839;SDS011;35514;50.504;30.500;2023-03-01T10:50:17;14.00;;;5.97;;
35839;SDS011;35514;50.504;30.500;2023-03-01T10:52:57;15.95;;;6.90;;
35839;SDS011;35514;50.504;30.500;2023-03-01T10:55:27;15.90;;;5.85;;
35839;SDS011;35514;50.504;30.500;2023-03-01T10:58:12;15.00;;;6.05;;
35839;SDS011;35514;50.504;30.500;2023-03-01T11:00:46;18.27;;;6.95;;
35839;SDS011;35514;50.504;30.500;2023-03-01T11:03:15;18.50;;;7.38;;
35839;SDS011;35514;50.504;30.500;2023-03-01T11:05:59;20.83;;;7.18;;
35839;SDS011;35514;50.504;30.500;2023-03-01T11:08:36;21.08;;;6.38;;
35839;SDS011;35514;50.504;30.500;2023-03-01T11:11:14;17.52;;;6.55;;
35839;SDS011;35514;50.504;30.500;2023-03-01T11:13:49;15.20;;;5.32;;
35839;SDS011;35514;50.504;30.500;2023-03-01T11:16:22;13.98;;;5.30;;
35839;SDS011;35514;50.504;30.500;2023-03-01T11:18:55;18.92;;;5.72;;
35839;SDS011;35514;50.504;30.500;2023-03-01T11:21:23;13.93;;;5.57;;
35839;SDS011;35514;50.504;30.500;2023-03-01T11:23:53;16.83;;;6.47;;
35839;SDS011;35514;50.504;30.500;2023-03-01T11:26:20;14.32;;;6.35;;
35839;SDS011;35514;50.504;30.500;2023-03-01T11:28:49;15.38;;;6.13;;
35839;SDS011;35514;50.504;30.500;2023-03-01T11:31:20;16.17;;;6.60;;
35839;SDS011;35514;50.504;30.500;2023-03-01T11:33:53;15.52;;;6.30;;
35839;SDS011;35514;50.504;30.500;2023-03-01T11:36:24;11.85;;;5.05;;
35839;SDS011;35514;50.504;30.500;2023-03-01T11:38:56;16.75;;;5.82;;
35839;SDS011;35514;50.504;30.500;2023-03-01T11:41:25;14.60;;;5.28;;
35839;SDS011;35514;50.504;30.500;2023-03-01T11:43:53;13.32;;;5.57;;
35839;SDS011;35514;50.504;30.500;2023-03-01T11:46:51;12.15;;;5.07;;
35839;SDS011;35514;50.504;30.500;2023-03-01T11:49:30;13.68;;;5.95;;
35839;SDS011;35514;50.504;30.500;2023-03-01T11:52:08;18.13;;;5.50;;
35839;SDS011;35514;50.504;30.500;2023-03-01T11:54:47;16.08;;;5.85;;
35839;SDS011;35514;50.504;30.500;2023-03-01T11:57:27;15.80;;;5.88;;
35839;SDS011;35514;50.504;30.500;2023-03-01T12:00:18;14.50;;;5.00;;
35839;SDS011;35514;50.504;30.500;2023-03-01T12:03:00;14.00;;;5.53;;
35839;SDS011;35514;50.504;30.500;2023-03-01T12:05:40;13.20;;;5.95;;
35839;SDS011;35514;50.504;30.500;2023-03-01T12:08:17;15.30;;;5.60;;
35839;SDS011;35514;50.504;30.500;2023-03-01T12:10:51;10.35;;;5.32;;
35839;SDS011;35514;50.504;30.500;2023-03-01T12:13:25;13.43;;;5.32;;
35839;SDS011;35514;50.504;30.500;2023-03-01T12:16:24;12.95;;;5.10;;
35839;SDS011;35514;50.504;30.500;2023-03-01T12:19:15;17.08;;;6.38;;
35839;SDS011;35514;50.504;30.500;2023-03-01T12:21:53;16.25;;;6.40;;
35839;SDS011;35514;50.504;30.500;2023-03-01T12:27:26;15.00;;;5.28;;
35839;SDS011;35514;50.504;30.500;2023-03-01T12:30:14;9.95;;;4.82;;
35839;SDS011;35514;50.504;30.500;2023-03-01T12:32:47;16.35;;;6.15;;
35839;SDS011;35514;50.504;30.500;2023-03-01T12:35:30;13.95;;;6.60;;
35839;SDS011;35514;50.504;30.500;2023-03-01T12:38:06;13.32;;;5.63;;
35839;SDS011;35514;50.504;30.500;2023-03-01T12:40:43;10.32;;;4.93;;
35839;SDS011;35514;50.504;30.500;2023-03-01T12:43:19;19.33;;;6.35;;
35839;SDS011;35514;50.504;30.500;2023-03-01T12:46:15;21.33;;;6.30;;
35839;SDS011;35514;50.504;30.500;2023-03-01T12:49:12;16.50;;;6.38;;
35839;SDS011;35514;50.504;30.500;2023-03-01T12:51:42;17.05;;;5.93;;
35839;SDS011;35514;50.504;30.500;2023-03-01T12:54:14;15.93;;;6.07;;
35839;SDS011;35514;50.504;30.500;2023-03-01T12:57:09;13.68;;;5.22;;
35839;SDS011;35514;50.504;30.500;2023-03-01T12:59:41;13.95;;;5.95;;
35839;SDS011;35514;50.504;30.500;2023-03-01T13:02:13;13.65;;;4.95;;
35839;SDS011;35514;50.504;30.500;2023-03-01T13:04:51;15.20;;;6.18;;
35839;SDS011;35514;50.504;30.500;2023-03-01T13:07:22;17.27;;;5.88;;
35839;SDS011;35514;50.504;30.500;2023-03-01T13:09:54;15.38;;;6.07;;
35839;SDS011;35514;50.504;30.500;2023-03-01T13:12:50;19.38;;;6.78;;
35839;SDS011;35514;50.504;30.500;2023-03-01T13:15:26;19.58;;;6.70;;
35839;SDS011;35514;50.504;30.500;2023-03-01T13:17:54;13.98;;;6.03;;
35839;SDS011;35514;50.504;30.500;2023-03-01T13:20:24;16.48;;;6.43;;
35839;SDS011;35514;50.504;30.500;2023-03-01T13:23:00;25.42;;;7.95;;
35839;SDS011;35514;50.504;30.500;2023-03-01T13:25:28;30.33;;;9.25;;
35839;SDS011;35514;50.504;30.500;2023-03-01T13:33:42;20.88;;;9.13;;
35839;SDS011;35514;50.504;30.500;2023-03-01T13:38:57;18.05;;;7.80;;
35839;SDS011;35514;50.504;30.500;2023-03-01T13:44:11;17.65;;;7.13;;
35839;SDS011;35514;50.504;30.500;2023-03-01T13:46:39;18.25;;;7.68;;
35839;SDS011;35514;50.504;30.500;2023-03-01T13:49:11;26.73;;;8.60;;
35839;SDS011;35514;50.504;30.500;2023-03-01T13:51:41;22.33;;;8.43;;
35839;SDS011;35514;50.504;30.500;2023-03-01T13:54:09;24.95;;;8.40;;
35839;SDS011;35514;50.504;30.500;2023-03-01T13:56:38;20.23;;;9.27;;
35839;SDS011;35514;50.504;30.500;2023-03-01T13:59:12;22.83;;;8.00;;
35839;SDS011;35514;50.504;30.500;2023-03-01T14:01:40;27.90;;;8.40;;
35839;SDS011;35514;50.504;30.500;2023-03-01T14:04:20;16.88;;;7.72;;
35839;SDS011;35514;50.504;30.500;2023-03-01T14:06:47;14.75;;;7.00;;
35839;SDS011;35514;50.504;30.500;2023-03-01T14:09:16;19.65;;;7.78;;
35839;SDS011;35514;50.504;30.500;2023-03-01T14:11:59;26.52;;;7.82;;
35839;SDS011;35514;50.504;30.500;2023-03-01T14:14:43;16.80;;;7.10;;
35839;SDS011;35514;50.504;30.500;2023-03-01T14:17:16;16.55;;;7.90;;
35839;SDS011;35514;50.504;30.500;2023-03-01T14:19:48;16.73;;;7.28;;
35839;SDS011;35514;50.504;30.500;2023-03-01T14:22:22;18.20;;;7.68;;
35839;SDS011;35514;50.504;30.500;2023-03-01T14:24:50;17.83;;;7.45;;
35839;SDS011;35514;50.504;30.500;2023-03-01T14:27:18;18.15;;;7.07;;
35839;SDS011;35514;50.504;30.500;2023-03-01T14:29:53;20.27;;;6.97;;
35839;SDS011;35514;50.504;30.500;2023-03-01T14:32:22;16.40;;;7.72;;
35839;SDS011;35514;50.504;30.500;2023-03-01T14:34:52;18.00;;;6.82;;
35839;SDS011;35514;50.504;30.500;2023-03-01T14:37:21;21.45;;;7.43;;
35839;SDS011;35514;50.504;30.500;2023-03-01T14:39:49;23.02;;;7.13;;
35839;SDS011;35514;50.504;30.500;2023-03-01T14:42:17;14.18;;;6.05;;
35839;SDS011;35514;50.504;30.500;2023-03-01T14:44:46;15.98;;;6.75;;
35839;SDS011;35514;50.504;30.500;2023-03-01T14:47:15;19.13;;;7.22;;
35839;SDS011;35514;50.504;30.500;2023-03-01T14:49:46;19.20;;;7.38;;
35839;SDS011;35514;50.504;30.500;2023-03-01T14:52:20;21.30;;;7.32;;
35839;SDS011;35514;50.504;30.500;2023-03-01T14:54:49;12.65;;;5.65;;
35839;SDS011;35514;50.504;30.500;2023-03-01T14:57:38;18.05;;;6.95;;
35839;SDS011;35514;50.504;30.500;2023-03-01T15:00:10;20.40;;;6.95;;
35839;SDS011;35514;50.504;30.500;2023-03-01T15:02:43;18.67;;;6.60;;